Time;durP1;ratioP1;P1;durP2;ratioP2;P2;SDS_P1;SDS_P2;PMS_P1;PMS_P2;Temp;Humidity;BMP_temperature;BMP_pressure;BME280_temperature;BME280_humidity;BME280_pressure;Samples;Min_cycle;Max_cycle;Signal;HPM_P1;HPM_P2
2021/03/13 00:00:54;;;;;;;6.03;3.65;;;25.70;70.20;;;;;;4196610;28;20037;-55
2021/03/13 00:02:58;;;;;;;3.97;3.38;;;25.70;70.20;;;;;;4196401;28;20297;-60
2021/03/13 00:05:00;;;;;;;4.43;3.72;;;25.70;70.10;;;;;;4196081;28;21455;-58
2021/03/13 00:07:02;;;;;;;4.28;3.20;;;25.70;70.00;;;;;;4199993;28;20032;-60
2021/03/13 00:09:04;;;;;;;4.45;3.35;;;25.70;70.00;;;;;;4197810;28;20043;-60
2021/03/13 00:11:09;;;;;;;5.47;3.50;;;25.70;69.90;;;;;;4198784;28;20038;-59
2021/03/13 00:13:12;;;;;;;5.75;3.05;;;25.70;70.40;;;;;;4200018;28;20267;-55
2021/03/13 00:15:15;;;;;;;7.18;3.30;;;25.80;70.60;;;;;;4198110;28;20032;-51
2021/03/13 00:17:17;;;;;;;9.98;3.08;;;25.80;70.80;;;;;;4197938;28;20028;-53
2021/03/13 00:19:19;;;;;;;5.97;3.50;;;25.80;70.90;;;;;;4198996;28;20450;-56
2021/03/13 00:21:21;;;;;;;5.45;2.90;;;25.90;71.00;;;;;;4197883;28;20532;-53
2021/03/13 00:23:25;;;;;;;5.15;2.65;;;25.90;71.00;;;;;;4199089;28;20040;-56
2021/03/13 00:25:29;;;;;;;6.30;2.72;;;25.90;71.00;;;;;;4199989;28;20024;-55
2021/03/13 00:27:31;;;;;;;2.60;2.30;;;26.00;71.10;;;;;;4200405;28;20032;-59
2021/03/13 00:29:33;;;;;;;4.43;2.40;;;26.00;71.10;;;;;;4196331;28;20458;-59
2021/03/13 00:31:36;;;;;;;7.32;2.22;;;26.00;71.00;;;;;;4198106;28;20058;-56
2021/03/13 00:33:38;;;;;;;2.60;1.92;;;26.00;71.00;;;;;;4198880;28;20586;-58
2021/03/13 00:35:42;;;;;;;4.18;2.13;;;26.10;71.10;;;;;;4201137;28;20093;-57
2021/03/13 00:37:45;;;;;;;5.43;2.45;;;26.10;71.00;;;;;;4201401;28;20032;-58
2021/03/13 00:39:47;;;;;;;;;;;26.20;71.10;;;;;;4199487;28;20155;-58
2021/03/13 00:41:49;;;;;;;3.83;2.20;;;26.20;71.20;;;;;;4197024;28;20387;-57
2021/03/13 00:43:51;;;;;;;3.65;2.17;;;26.20;71.30;;;;;;4198202;28;20447;-58
2021/03/13 00:45:53;;;;;;;2.30;1.80;;;26.30;71.30;;;;;;4198580;28;20047;-60
2021/03/13 00:47:57;;;;;;;5.65;2.95;;;26.30;71.20;;;;;;4196288;28;20059;-54
2021/03/13 00:49:59;;;;;;;5.38;2.42;;;26.30;71.10;;;;;;4194758;28;20227;-53
2021/03/13 00:52:01;;;;;;;3.90;2.70;;;26.30;70.90;;;;;;4199541;28;20378;-57
2021/03/13 00:54:04;;;;;;;5.60;2.40;;;26.30;70.70;;;;;;4196040;28;20032;-56
2021/03/13 00:56:06;;;;;;;11.48;2.50;;;26.30;70.70;;;;;;4198138;28;20492;-59
2021/03/13 00:58:08;;;;;;;5.78;2.63;;;26.30;70.60;;;;;;4198371;28;20353;-55
2021/03/13 01:00:13;;;;;;;5.13;2.72;;;26.30;70.60;;;;;;4196764;28;20028;-51
2021/03/13 01:02:15;;;;;;;4.50;2.45;;;26.40;70.60;;;;;;4197385;28;20130;-54
2021/03/13 01:04:17;;;;;;;4.10;2.88;;;26.40;70.50;;;;;;4200750;28;20065;-57
2021/03/13 01:06:21;;;;;;;6.70;2.60;;;26.40;70.40;;;;;;4197464;28;20043;-53
2021/03/13 01:08:24;;;;;;;4.20;2.70;;;26.40;70.30;;;;;;4195956;28;20079;-55
2021/03/13 01:10:38;;;;;;;3.50;2.58;;;26.50;70.40;;;;;;4200026;28;20028;-57
2021/03/13 01:12:41;;;;;;;3.75;2.90;;;26.50;70.30;;;;;;4195924;28;20103;-53
2021/03/13 01:14:43;;;;;;;4.15;2.72;;;26.50;70.30;;;;;;4177986;28;20040;-57
2021/03/13 01:16:46;;;;;;;5.10;3.20;;;26.50;70.30;;;;;;4199133;28;20032;-54
2021/03/13 01:18:48;;;;;;;4.40;2.80;;;26.60;70.30;;;;;;4199837;28;20198;-54
2021/03/13 01:20:51;;;;;;;5.03;3.03;;;26.60;70.30;;;;;;4200810;28;20063;-57
2021/03/13 01:22:57;;;;;;;3.72;3.15;;;26.60;70.30;;;;;;4197123;28;20393;-57
2021/03/13 01:24:59;;;;;;;3.83;2.92;;;26.60;70.20;;;;;;4200579;28;20036;-56
2021/03/13 01:27:02;;;;;;;3.53;2.88;;;26.70;70.20;;;;;;4203332;28;20405;-57
2021/03/13 01:29:04;;;;;;;4.40;3.05;;;26.70;70.20;;;;;;4201641;28;20020;-56
2021/03/13 01:31:06;;;;;;;3.30;2.72;;;26.70;70.10;;;;;;4202715;28;20362;-53
2021/03/13 01:33:09;;;;;;;3.20;2.57;;;26.80;70.00;;;;;;4203379;28;20051;-54
2021/03/13 01:35:11;;;;;;;4.13;3.20;;;26.70;69.90;;;;;;4198884;28;20096;-53
2021/03/13 01:37:16;;;;;;;3.78;3.22;;;26.80;69.90;;;;;;4203858;28;20027;-56
2021/03/13 01:39:18;;;;;;;3.75;3.05;;;26.80;69.90;;;;;;4198353;28;20729;-52
2021/03/13 01:41:20;;;;;;;4.13;3.30;;;26.80;70.00;;;;;;4201309;28;20390;-57
2021/03/13 01:43:22;;;;;;;3.37;2.93;;;26.90;70.20;;;;;;4184309;28;20691;-56
2021/03/13 01:45:25;;;;;;;5.60;3.20;;;26.90;70.20;;;;;;4203523;28;20067;-57
2021/03/13 01:47:29;;;;;;;4.38;3.55;;;26.90;70.20;;;;;;4188803;28;20038;-56
2021/03/13 01:49:33;;;;;;;3.42;3.05;;;26.90;70.00;;;;;;4201926;28;20107;-56
2021/03/13 01:51:35;;;;;;;3.65;3.22;;;27.00;70.00;;;;;;4203379;28;20047;-56
2021/03/13 01:53:37;;;;;;;3.92;2.97;;;27.00;70.00;;;;;;4204365;28;20047;-58
2021/03/13 01:55:40;;;;;;;3.60;3.17;;;27.00;69.90;;;;;;4203871;28;20059;-58
2021/03/13 01:57:42;;;;;;;4.03;3.03;;;27.00;69.80;;;;;;4201812;28;20036;-58
2021/03/13 01:59:46;;;;;;;4.25;3.25;;;27.00;69.70;;;;;;4201266;28;20052;-57
2021/03/13 02:01:48;;;;;;;4.47;3.40;;;27.10;69.60;;;;;;4204029;28;20509;-56
2021/03/13 02:03:50;;;;;;;3.92;3.20;;;27.10;69.50;;;;;;4196070;28;20044;-59
2021/03/13 02:05:56;;;;;;;4.45;3.60;;;27.20;69.40;;;;;;4193584;28;20690;-58
2021/03/13 02:08:16;;;;;;;3.72;3.00;;;27.20;69.20;;;;;;4196293;28;20055;-58
2021/03/13 02:10:51;;;;;;;3.95;3.25;;;27.20;69.10;;;;;;4196976;28;20458;-55
2021/03/13 02:13:05;;;;;;;3.28;2.80;;;27.30;69.00;;;;;;4139780;28;20040;-57
2021/03/13 02:15:31;;;;;;;3.92;3.20;;;27.30;69.00;;;;;;4191335;28;20046;-57
2021/03/13 02:18:08;;;;;;;3.30;2.80;;;27.30;69.00;;;;;;4197965;28;20051;-58
2021/03/13 02:20:46;;;;;;;3.70;3.17;;;27.40;69.10;;;;;;4183070;28;20039;-58
2021/03/13 02:22:51;;;;;;;3.95;3.40;;;27.40;69.00;;;;;;4196512;28;20104;-54
2021/03/13 02:25:12;;;;;;;4.43;3.33;;;27.50;69.20;;;;;;4192674;28;20526;-57
2021/03/13 02:27:23;;;;;;;3.17;2.88;;;27.50;69.20;;;;;;4191402;28;20525;-58
2021/03/13 02:29:34;;;;;;;3.47;3.10;;;27.50;68.90;;;;;;4196013;28;20122;-59
2021/03/13 02:31:38;;;;;;;3.97;3.08;;;27.50;68.80;;;;;;4194139;28;20039;-58
2021/03/13 02:33:46;;;;;;;3.17;2.80;;;27.60;68.60;;;;;;4195741;28;20040;-60
2021/03/13 02:36:00;;;;;;;3.88;2.85;;;27.60;68.40;;;;;;4182753;28;20370;-58
2021/03/13 02:38:11;;;;;;;3.00;2.70;;;27.70;68.50;;;;;;4196332;28;20163;-57
2021/03/13 02:40:22;;;;;;;3.38;2.78;;;27.70;68.40;;;;;;4201805;28;20031;-59
2021/03/13 02:42:27;;;;;;;3.63;3.00;;;27.70;68.20;;;;;;4200925;28;20051;-60
2021/03/13 02:44:32;;;;;;;3.00;2.63;;;27.80;68.30;;;;;;4204340;28;20075;-59
2021/03/13 02:46:47;;;;;;;4.53;3.17;;;27.80;68.50;;;;;;4205739;28;20043;-60
2021/03/13 02:48:51;;;;;;;3.25;2.65;;;27.80;68.10;;;;;;4204322;28;20392;-60
2021/03/13 02:50:54;;;;;;;3.22;2.60;;;27.90;68.00;;;;;;4197689;28;20056;-59
2021/03/13 02:52:55;;;;;;;;;;;27.90;67.80;;;;;;4200535;28;20059;-60
2021/03/13 02:55:00;;;;;;;3.38;3.00;;;28.00;67.40;;;;;;4196007;28;20454;-59
2021/03/13 02:57:03;;;;;;;3.67;2.80;;;28.00;67.00;;;;;;4192571;28;20401;-59
2021/03/13 02:59:06;;;;;;;3.20;2.55;;;28.00;66.70;;;;;;4195958;28;20024;-60
2021/03/13 03:01:09;;;;;;;3.67;2.50;;;28.10;66.70;;;;;;4196300;28;20016;-60
2021/03/13 03:03:11;;;;;;;2.72;2.30;;;28.10;66.10;;;;;;4192662;28;20039;-60
2021/03/13 03:05:18;;;;;;;3.15;2.33;;;28.10;65.70;;;;;;4189515;28;20311;-59
2021/03/13 03:07:27;;;;;;;2.80;2.50;;;28.20;65.60;;;;;;4195523;28;20054;-59
2021/03/13 03:09:29;;;;;;;2.33;2.13;;;28.20;65.40;;;;;;4193976;28;20046;-58
2021/03/13 03:11:33;;;;;;;3.50;2.15;;;28.20;65.00;;;;;;4196263;28;20051;-59
2021/03/13 03:13:36;;;;;;;2.55;2.10;;;28.30;65.30;;;;;;4196651;28;20587;-59
2021/03/13 03:15:39;;;;;;;3.15;2.28;;;28.30;65.40;;;;;;4197226;28;20157;-58
2021/03/13 03:17:42;;;;;;;3.67;2.30;;;28.30;65.50;;;;;;4198121;28;20036;-59
2021/03/13 03:19:44;;;;;;;;;;;28.30;65.60;;;;;;4203767;28;20028;-59
2021/03/13 03:21:47;;;;;;;3.17;2.40;;;28.40;65.80;;;;;;4200097;28;19947;-58
2021/03/13 03:23:50;;;;;;;3.22;2.13;;;28.40;66.00;;;;;;4203476;28;20393;-59
2021/03/13 03:25:56;;;;;;;3.10;2.40;;;28.40;65.90;;;;;;4201605;28;20115;-58
2021/03/13 03:27:58;;;;;;;4.45;2.35;;;28.40;66.00;;;;;;4200020;28;20044;-59
2021/03/13 03:30:02;;;;;;;3.43;2.37;;;28.40;66.20;;;;;;4196812;28;20436;-59
2021/03/13 03:32:04;;;;;;;3.22;2.50;;;28.50;66.50;;;;;;4201312;28;20057;-59
2021/03/13 03:34:06;;;;;;;3.40;2.42;;;28.40;66.50;;;;;;4200314;28;20019;-59
2021/03/13 03:36:10;;;;;;;3.20;2.40;;;28.50;66.90;;;;;;4199252;28;20054;-59
2021/03/13 03:38:12;;;;;;;2.92;2.38;;;28.50;67.10;;;;;;4195430;28;20518;-59
2021/03/13 03:40:18;;;;;;;4.35;2.33;;;28.50;66.80;;;;;;4199737;28;20077;-59
2021/03/13 03:42:21;;;;;;;4.07;2.60;;;28.60;67.00;;;;;;4200975;28;20458;-59
2021/03/13 03:44:26;;;;;;;4.93;2.53;;;28.60;67.00;;;;;;4198701;28;20036;-59
2021/03/13 03:46:29;;;;;;;3.38;2.30;;;28.60;67.20;;;;;;4201674;28;20380;-59
2021/03/13 03:48:33;;;;;;;3.17;2.50;;;28.60;67.20;;;;;;4199006;28;20044;-60
2021/03/13 03:50:36;;;;;;;4.50;2.45;;;28.60;67.20;;;;;;4200914;28;20075;-59
2021/03/13 03:52:38;;;;;;;4.18;2.45;;;28.70;67.20;;;;;;4197709;28;20036;-59
2021/03/13 03:54:41;;;;;;;4.13;2.40;;;28.80;67.20;;;;;;4200852;28;20032;-58
2021/03/13 03:56:45;;;;;;;2.83;2.22;;;28.70;67.00;;;;;;4200311;28;20229;-60
2021/03/13 03:58:48;;;;;;;2.70;2.17;;;28.80;67.00;;;;;;4201834;28;20031;-60
2021/03/13 04:00:51;;;;;;;2.72;2.17;;;28.90;66.90;;;;;;4197866;28;20101;-59
2021/03/13 04:02:58;;;;;;;2.83;2.10;;;28.90;66.90;;;;;;4201945;28;20056;-60
2021/03/13 04:05:01;;;;;;;3.40;2.13;;;28.90;66.90;;;;;;4199727;28;20464;-59
2021/03/13 04:07:04;;;;;;;4.68;2.30;;;29.00;66.90;;;;;;4202531;28;20491;-59
2021/03/13 04:09:07;;;;;;;;;;;29.00;66.80;;;;;;4199292;28;20047;-60
2021/03/13 04:11:16;;;;;;;2.57;2.10;;;29.10;66.70;;;;;;4200236;28;20260;-60
2021/03/13 04:13:20;;;;;;;2.92;2.33;;;29.10;66.40;;;;;;4199881;28;20776;-59
2021/03/13 04:15:23;;;;;;;3.58;2.30;;;29.10;66.40;;;;;;4196316;28;20130;-59
2021/03/13 04:17:26;;;;;;;4.30;2.05;;;29.20;66.40;;;;;;4202378;28;20089;-59
2021/03/13 04:19:29;;;;;;;2.58;2.00;;;29.20;66.20;;;;;;4197985;28;20078;-60
2021/03/13 04:21:32;;;;;;;4.30;2.08;;;29.30;66.30;;;;;;4200750;28;20523;-59
2021/03/13 04:23:36;;;;;;;;;;;29.30;66.40;;;;;;4198939;28;20140;-59
2021/03/13 04:25:38;;;;;;;2.50;1.90;;;29.30;66.30;;;;;;4203078;28;19916;-59
2021/03/13 04:27:46;;;;;;;2.80;2.10;;;29.30;66.30;;;;;;4200418;28;20136;-59
2021/03/13 04:29:49;;;;;;;2.10;1.90;;;29.30;66.40;;;;;;4199377;28;20133;-60
2021/03/13 04:31:51;;;;;;;3.45;2.50;;;29.30;66.40;;;;;;4203624;28;20271;-60
2021/03/13 04:33:56;;;;;;;3.72;2.17;;;29.30;66.30;;;;;;4200231;28;20035;-60
2021/03/13 04:35:59;;;;;;;2.80;2.17;;;29.40;66.50;;;;;;4198747;28;20050;-60
2021/03/13 04:38:02;;;;;;;3.08;2.20;;;29.40;66.40;;;;;;4201464;28;20398;-60
2021/03/13 04:40:05;;;;;;;2.80;2.28;;;29.40;66.50;;;;;;4196496;28;20035;-60
2021/03/13 04:42:07;;;;;;;;;;;29.30;66.50;;;;;;4199740;28;20061;-60
2021/03/13 04:44:09;;;;;;;2.60;2.20;;;29.40;66.50;;;;;;4198173;28;20528;-59
2021/03/13 04:46:12;;;;;;;2.88;2.08;;;29.40;66.30;;;;;;4199689;28;20035;-59
2021/03/13 04:48:14;;;;;;;3.00;2.30;;;29.40;66.40;;;;;;4199364;28;20054;-58
2021/03/13 04:50:20;;;;;;;3.33;2.40;;;29.40;66.40;;;;;;4197590;28;20114;-59
2021/03/13 04:52:22;;;;;;;3.35;2.35;;;29.40;66.60;;;;;;4199027;28;20031;-59
2021/03/13 04:54:24;;;;;;;3.78;2.28;;;29.50;66.40;;;;;;4198782;28;20101;-60
2021/03/13 04:56:26;;;;;;;4.25;2.38;;;29.50;66.30;;;;;;4200028;28;20060;-59
2021/03/13 04:58:30;;;;;;;3.25;2.55;;;29.50;66.20;;;;;;4183265;28;20020;-60
2021/03/13 05:00:32;;;;;;;3.70;2.25;;;29.60;66.30;;;;;;4199521;28;20392;-60
2021/03/13 05:02:34;;;;;;;2.55;2.35;;;29.50;66.90;;;;;;4198708;28;20051;-58
2021/03/13 05:04:36;;;;;;;3.33;2.10;;;29.50;66.20;;;;;;4202724;28;20097;-59
2021/03/13 05:06:38;;;;;;;3.07;2.40;;;29.50;66.30;;;;;;4196761;28;20105;-62
2021/03/13 05:08:41;;;;;;;3.27;2.43;;;29.60;66.30;;;;;;4200911;28;20507;-59
2021/03/13 05:10:43;;;;;;;3.27;2.57;;;29.60;66.10;;;;;;4198429;28;20307;-59
2021/03/13 05:12:45;;;;;;;3.33;2.43;;;29.70;66.30;;;;;;4200616;28;20267;-60
2021/03/13 05:14:47;;;;;;;3.73;2.70;;;29.60;66.30;;;;;;4190920;28;20273;-59
2021/03/13 05:16:50;;;;;;;3.35;2.45;;;29.60;66.30;;;;;;4202696;28;20501;-59
2021/03/13 05:18:52;;;;;;;2.97;2.43;;;29.60;66.40;;;;;;4196618;28;20032;-59
2021/03/13 05:20:54;;;;;;;4.20;2.40;;;29.60;66.40;;;;;;4200615;28;20132;-59
2021/03/13 05:22:56;;;;;;;3.95;2.85;;;29.50;66.00;;;;;;4198727;28;20323;-59
2021/03/13 05:24:58;;;;;;;3.17;2.70;;;29.50;65.80;;;;;;4201122;28;20133;-59
2021/03/13 05:27:01;;;;;;;4.37;2.63;;;29.40;65.50;;;;;;4199312;28;20040;-60
2021/03/13 05:29:03;;;;;;;2.97;2.67;;;29.40;65.70;;;;;;4198565;28;20029;-60
2021/03/13 05:31:05;;;;;;;3.63;2.67;;;29.40;65.80;;;;;;4198899;28;20035;-60
2021/03/13 05:33:08;;;;;;;4.47;2.73;;;29.40;65.70;;;;;;4197065;28;20284;-59
2021/03/13 05:35:12;;;;;;;3.50;2.63;;;29.40;65.90;;;;;;4194354;28;20461;-59
2021/03/13 05:37:14;;;;;;;3.55;2.53;;;29.40;65.80;;;;;;4201149;28;20718;-59
2021/03/13 05:39:17;;;;;;;3.10;2.50;;;29.40;65.80;;;;;;4192986;28;20032;-59
2021/03/13 05:41:20;;;;;;;4.57;3.03;;;29.40;65.90;;;;;;4200019;28;20082;-59
2021/03/13 05:43:22;;;;;;;4.13;2.95;;;29.40;65.90;;;;;;4198447;28;20860;-60
2021/03/13 05:45:25;;;;;;;3.97;2.63;;;29.40;66.00;;;;;;4195848;28;20044;-60
2021/03/13 05:47:27;;;;;;;3.33;2.58;;;29.40;65.90;;;;;;4183741;28;20119;-60
2021/03/13 05:49:35;;;;;;;4.10;2.60;;;29.40;65.80;;;;;;4184125;28;20132;-61
2021/03/13 05:51:47;;;;;;;4.97;2.80;;;29.50;65.80;;;;;;4197962;28;20132;-60
2021/03/13 05:53:51;;;;;;;5.13;3.05;;;29.60;65.80;;;;;;4197425;28;20529;-61
2021/03/13 05:55:57;;;;;;;3.85;2.85;;;29.60;65.80;;;;;;4201905;28;20361;-60
2021/03/13 05:57:59;;;;;;;4.90;2.60;;;29.60;66.20;;;;;;4197019;28;20036;-60
2021/03/13 06:00:03;;;;;;;8.05;2.88;;;29.60;66.20;;;;;;4198334;28;20159;-63
2021/03/13 06:02:07;;;;;;;4.97;2.88;;;29.60;66.40;;;;;;4195549;28;20440;-61
2021/03/13 06:04:09;;;;;;;4.72;2.53;;;29.70;66.60;;;;;;4201532;28;20028;-63
2021/03/13 06:06:11;;;;;;;8.43;2.63;;;29.80;66.40;;;;;;4200223;28;20358;-61
2021/03/13 06:08:16;;;;;;;5.55;3.00;;;30.00;66.20;;;;;;4199120;28;20028;-61
2021/03/13 06:10:18;;;;;;;5.57;3.00;;;30.10;66.10;;;;;;4203139;28;20455;-58
2021/03/13 06:12:21;;;;;;;4.50;2.45;;;30.10;66.00;;;;;;4202970;28;20072;-59
2021/03/13 06:14:23;;;;;;;4.32;2.67;;;30.20;65.80;;;;;;4198490;28;20541;-61
2021/03/13 06:16:26;;;;;;;5.57;2.67;;;30.40;65.90;;;;;;4204477;28;20032;-61
2021/03/13 06:18:47;;;;;;;;;;;30.40;65.50;;;;;;4195748;28;20036;-62
2021/03/13 06:20:49;;;;;;;5.18;2.80;;;30.50;65.40;;;;;;4201150;28;20300;-59
2021/03/13 06:22:51;;;;;;;5.05;2.80;;;30.60;65.10;;;;;;4202890;28;20514;-61
2021/03/13 06:25:13;;;;;;;3.28;2.70;;;30.60;65.20;;;;;;4204238;28;20397;-58
2021/03/13 06:27:17;;;;;;;8.77;3.83;;;30.60;65.10;;;;;;4186625;28;20078;-58
2021/03/13 06:29:19;;;;;;;8.95;4.07;;;30.70;64.90;;;;;;4200169;28;20056;-55
2021/03/13 06:31:26;;;;;;;7.95;4.18;;;30.80;64.60;;;;;;4204312;28;20024;-59
2021/03/13 06:33:30;;;;;;;7.43;4.25;;;30.80;64.30;;;;;;4204874;28;20090;-57
2021/03/13 06:35:32;;;;;;;7.22;4.45;;;30.80;64.00;;;;;;4198804;28;20107;-57
2021/03/13 06:37:34;;;;;;;10.00;4.60;;;30.80;63.80;;;;;;4207090;28;20251;-57
2021/03/13 06:39:40;;;;;;;8.13;5.00;;;30.80;63.80;;;;;;4198791;28;20264;-58
2021/03/13 06:41:42;;;;;;;8.32;4.45;;;30.80;64.10;;;;;;4201912;28;20504;-59
2021/03/13 06:43:46;;;;;;;7.65;4.25;;;30.80;63.80;;;;;;4201972;28;20032;-59
2021/03/13 06:46:05;;;;;;;7.57;4.53;;;31.00;63.60;;;;;;4200147;28;20032;-59
2021/03/13 06:48:08;;;;;;;9.70;4.28;;;31.00;63.20;;;;;;4197407;28;20079;-58
2021/03/13 06:50:16;;;;;;;8.13;4.13;;;31.00;62.90;;;;;;4192960;28;20101;-58
2021/03/13 06:52:21;;;;;;;6.72;3.38;;;31.00;63.00;;;;;;4203048;28;20153;-58
2021/03/13 06:54:36;;;;;;;6.55;3.33;;;31.00;62.80;;;;;;4195163;28;20101;-58
2021/03/13 06:57:00;;;;;;;5.40;3.05;;;30.90;62.80;;;;;;4197633;28;20040;-57
2021/03/13 06:59:02;;;;;;;;;;;30.90;63.00;;;;;;4203525;28;21133;-58
2021/03/13 07:01:05;;;;;;;5.22;3.35;;;30.80;62.80;;;;;;4201779;28;19908;-58
2021/03/13 07:03:12;;;;;;;4.82;2.92;;;30.80;62.80;;;;;;4203715;28;20067;-58
2021/03/13 07:05:15;;;;;;;7.70;3.40;;;30.80;63.20;;;;;;4201165;28;20055;-58
2021/03/13 07:07:30;;;;;;;5.00;3.38;;;30.80;63.30;;;;;;4201035;28;20104;-58
2021/03/13 07:09:53;;;;;;;6.65;3.20;;;30.80;63.10;;;;;;4198483;28;20390;-58
2021/03/13 07:11:55;;;;;;;6.03;3.22;;;30.90;63.00;;;;;;4200815;28;20092;-57
2021/03/13 07:13:57;;;;;;;5.43;2.70;;;31.00;62.90;;;;;;4201601;28;20467;-57
2021/03/13 07:16:25;;;;;;;5.50;2.50;;;31.00;62.80;;;;;;4203113;28;20285;-58
2021/03/13 07:18:27;;;;;;;4.78;2.72;;;31.10;62.70;;;;;;4183044;28;20352;-58
2021/03/13 07:20:34;;;;;;;4.25;2.60;;;31.10;62.50;;;;;;4199454;28;20516;-58
2021/03/13 07:22:37;;;;;;;4.90;2.55;;;31.10;62.40;;;;;;4207570;28;20047;-58
2021/03/13 07:24:40;;;;;;;;;;;31.10;62.50;;;;;;4209280;28;20379;-57
2021/03/13 07:26:46;;;;;;;;;;;31.00;62.30;;;;;;4209736;28;20714;-56
2021/03/13 07:28:49;;;;;;;3.42;2.10;;;31.00;62.20;;;;;;4211640;28;19983;-58
2021/03/13 07:30:52;;;;;;;3.65;2.33;;;31.00;62.20;;;;;;4210542;28;20208;-59
2021/03/13 07:33:21;;;;;;;4.20;2.60;;;30.90;62.30;;;;;;4209318;28;20127;-58
2021/03/13 07:35:25;;;;;;;4.55;2.20;;;30.80;62.50;;;;;;4197075;28;20136;-58
2021/03/13 07:37:31;;;;;;;4.50;2.25;;;30.80;62.50;;;;;;4203436;28;20032;-58
2021/03/13 07:39:41;;;;;;;4.85;2.17;;;30.70;62.60;;;;;;4193562;28;20044;-64
2021/03/13 07:41:58;;;;;;;3.35;1.80;;;30.70;62.50;;;;;;4196221;28;20081;-64
2021/03/13 07:44:02;;;;;;;3.53;2.08;;;30.60;63.20;;;;;;4200512;28;20508;-62
2021/03/13 07:46:08;;;;;;;5.22;2.03;;;30.60;64.30;;;;;;4200066;28;20036;-61
2021/03/13 07:48:11;;;;;;;5.30;2.10;;;30.50;64.80;;;;;;4197832;28;20028;-61
2021/03/13 07:50:15;;;;;;;3.45;1.70;;;30.50;65.30;;;;;;4196578;28;20345;-61
2021/03/13 07:52:19;;;;;;;4.15;2.45;;;30.50;65.70;;;;;;4197859;28;20083;-63
2021/03/13 07:54:21;;;;;;;3.95;1.80;;;30.40;64.00;;;;;;4199597;28;20064;-63
2021/03/13 07:56:25;;;;;;;3.63;2.22;;;30.30;61.40;;;;;;4198034;28;20036;-61
2021/03/13 07:58:27;;;;;;;2.35;1.95;;;30.20;58.90;;;;;;4198314;28;20148;-61
2021/03/13 08:00:44;;;;;;;4.15;2.28;;;30.10;57.70;;;;;;4196376;28;20040;-62
2021/03/13 08:02:46;;;;;;;3.72;2.63;;;29.90;56.40;;;;;;4199073;28;20540;-61
2021/03/13 08:05:18;;;;;;;4.15;2.17;;;29.70;56.00;;;;;;4201580;28;20057;-61
2021/03/13 08:07:21;;;;;;;7.68;2.35;;;29.50;55.10;;;;;;4195112;28;20840;-60
2021/03/13 08:09:24;;;;;;;3.83;2.45;;;29.30;53.80;;;;;;4189085;28;20213;-64
2021/03/13 08:11:46;;;;;;;3.45;2.15;;;29.20;53.60;;;;;;4192069;28;20131;-65
2021/03/13 08:13:50;;;;;;;4.32;2.22;;;29.00;53.00;;;;;;4191722;28;20024;-63
2021/03/13 08:16:01;;;;;;;4.65;2.50;;;28.90;53.10;;;;;;4193175;28;20058;-63
2021/03/13 08:18:03;;;;;;;4.22;2.20;;;28.70;52.70;;;;;;4192855;28;20190;-65
2021/03/13 08:20:07;;;;;;;5.28;2.40;;;28.60;52.90;;;;;;4190720;28;20205;-60
2021/03/13 08:22:12;;;;;;;2.75;2.10;;;28.50;53.10;;;;;;4196185;28;20472;-61
2021/03/13 08:24:15;;;;;;;4.93;2.05;;;28.30;52.40;;;;;;4193549;28;20060;-60
2021/03/13 08:26:19;;;;;;;3.57;2.30;;;28.20;52.60;;;;;;4195507;28;20544;-61
2021/03/13 08:28:48;;;;;;;18.30;2.42;;;28.10;52.60;;;;;;4197020;28;20030;-60
2021/03/13 08:30:50;;;;;;;5.22;2.40;;;27.90;53.10;;;;;;4197168;28;20432;-64
2021/03/13 08:33:06;;;;;;;2.78;1.80;;;27.90;52.70;;;;;;4194749;28;20100;-60
2021/03/13 08:35:08;;;;;;;4.18;2.10;;;27.70;53.30;;;;;;4194953;28;20031;-60
2021/03/13 08:37:24;;;;;;;3.25;2.10;;;27.60;52.90;;;;;;4196097;28;20395;-59
2021/03/13 08:39:36;;;;;;;3.38;1.92;;;27.50;52.50;;;;;;4193031;28;20044;-59
2021/03/13 08:41:44;;;;;;;3.13;2.10;;;27.30;52.60;;;;;;4195757;28;20020;-59
2021/03/13 08:43:49;;;;;;;2.78;2.00;;;27.20;52.70;;;;;;4198452;28;20382;-59
2021/03/13 08:45:51;;;;;;;2.40;1.73;;;27.10;52.60;;;;;;4197643;28;20032;-61
2021/03/13 08:47:53;;;;;;;3.35;2.15;;;27.00;52.30;;;;;;4198277;28;20566;-63
2021/03/13 08:49:56;;;;;;;3.22;2.03;;;26.90;52.60;;;;;;4195353;28;20403;-62
2021/03/13 08:52:10;;;;;;;2.17;1.73;;;26.80;52.30;;;;;;4197750;28;20513;-62
2021/03/13 08:54:12;;;;;;;2.60;2.05;;;26.70;52.10;;;;;;4194369;28;20119;-62
2021/03/13 08:56:43;;;;;;;3.03;2.00;;;26.60;52.20;;;;;;4195409;28;20020;-56
2021/03/13 08:58:45;;;;;;;3.30;2.20;;;26.50;52.70;;;;;;4197058;28;20040;-58
2021/03/13 09:00:47;;;;;;;4.13;2.33;;;26.40;53.10;;;;;;4194092;28;20031;-59
2021/03/13 09:02:50;;;;;;;2.60;1.90;;;26.30;53.00;;;;;;4196121;28;20048;-59
2021/03/13 09:04:56;;;;;;;3.42;1.92;;;26.30;53.00;;;;;;4198504;28;20265;-59
2021/03/13 09:07:02;;;;;;;2.97;2.08;;;26.20;53.00;;;;;;4189566;28;20091;-58
2021/03/13 09:09:16;;;;;;;3.67;2.45;;;26.10;53.00;;;;;;4193815;28;20044;-61
2021/03/13 09:11:30;;;;;;;4.03;2.15;;;26.00;52.80;;;;;;4196027;28;20480;-61
2021/03/13 09:13:32;;;;;;;3.10;2.30;;;25.90;53.00;;;;;;4197057;28;20437;-61
2021/03/13 09:15:34;;;;;;;3.33;2.10;;;25.80;53.30;;;;;;4196678;28;20143;-62
2021/03/13 09:17:37;;;;;;;2.40;1.73;;;25.70;53.90;;;;;;4190381;28;20455;-60
2021/03/13 09:19:40;;;;;;;2.92;2.00;;;25.60;55.10;;;;;;4194804;28;20047;-60
2021/03/13 09:21:54;;;;;;;3.95;2.00;;;25.60;56.00;;;;;;4192724;28;20032;-64
2021/03/13 09:23:56;;;;;;;5.45;1.98;;;25.60;56.70;;;;;;4194002;28;20048;-62
2021/03/13 09:26:05;;;;;;;4.28;2.20;;;25.60;57.50;;;;;;4196425;28;20048;-61
2021/03/13 09:28:08;;;;;;;3.28;2.35;;;25.70;58.00;;;;;;4194957;28;20079;-59
2021/03/13 09:30:18;;;;;;;2.58;1.88;;;25.70;58.60;;;;;;4191646;28;20028;-60
2021/03/13 09:32:21;;;;;;;2.83;1.95;;;25.80;59.10;;;;;;4196942;28;20044;-64
2021/03/13 09:34:23;;;;;;;;;;;25.80;59.40;;;;;;4196639;28;20032;-63
2021/03/13 09:36:28;;;;;;;4.95;2.10;;;25.90;60.00;;;;;;4194784;28;20007;-63
2021/03/13 09:38:30;;;;;;;3.00;2.08;;;25.90;60.20;;;;;;4196359;28;20036;-57
2021/03/13 09:40:33;;;;;;;5.00;2.20;;;25.90;60.60;;;;;;4195773;28;20116;-63
2021/03/13 09:42:36;;;;;;;4.38;2.47;;;25.90;60.50;;;;;;4192340;28;20043;-63
2021/03/13 09:44:48;;;;;;;3.33;2.00;;;26.00;60.90;;;;;;4193571;28;20093;-60
2021/03/13 09:46:51;;;;;;;2.40;1.85;;;26.00;61.10;;;;;;4197699;28;20131;-66
2021/03/13 09:48:53;;;;;;;4.50;2.03;;;26.00;61.40;;;;;;4198892;28;20612;-56
2021/03/13 09:50:55;;;;;;;7.35;2.00;;;26.10;61.60;;;;;;4196392;28;20131;-57
2021/03/13 09:52:59;;;;;;;7.13;2.30;;;26.20;62.00;;;;;;4198097;28;20079;-58
2021/03/13 09:55:09;;;;;;;2.83;1.90;;;26.20;62.10;;;;;;4199407;28;20032;-69
2021/03/13 09:57:15;;;;;;;3.70;1.90;;;26.20;62.30;;;;;;4195022;28;20036;-61
2021/03/13 09:59:18;;;;;;;9.25;2.25;;;26.30;62.60;;;;;;4197080;28;20028;-65
2021/03/13 10:01:20;;;;;;;4.13;2.03;;;26.30;62.60;;;;;;4196141;28;20028;-60
2021/03/13 10:03:22;;;;;;;3.22;2.13;;;26.40;62.70;;;;;;4199513;28;20134;-60
2021/03/13 10:05:29;;;;;;;2.78;1.75;;;26.40;62.80;;;;;;4199776;28;20220;-63
2021/03/13 10:07:31;;;;;;;4.93;2.05;;;26.50;63.00;;;;;;4194696;28;20118;-63
2021/03/13 10:09:33;;;;;;;5.60;2.25;;;26.50;63.10;;;;;;4193771;28;20352;-56
2021/03/13 10:11:43;;;;;;;7.65;2.42;;;26.60;63.30;;;;;;4198884;28;20090;-58
2021/03/13 10:13:51;;;;;;;3.80;2.28;;;26.60;63.30;;;;;;4197223;28;20024;-61
2021/03/13 10:15:53;;;;;;;5.53;2.00;;;26.60;63.40;;;;;;4197419;28;20163;-52
2021/03/13 10:17:55;;;;;;;7.05;1.95;;;26.70;63.50;;;;;;4191480;28;20097;-63
2021/03/13 10:20:09;;;;;;;4.13;2.17;;;26.70;63.60;;;;;;4200255;28;20350;-61
2021/03/13 10:22:24;;;;;;;3.50;1.85;;;26.70;63.50;;;;;;4193502;28;20040;-58
2021/03/13 10:24:27;;;;;;;3.83;2.40;;;26.80;63.70;;;;;;4197812;28;20043;-60
2021/03/13 10:26:30;;;;;;;2.95;1.90;;;26.80;63.80;;;;;;4199223;28;20063;-59
2021/03/13 10:28:34;;;;;;;6.82;2.42;;;26.80;63.70;;;;;;4196965;28;20032;-60
2021/03/13 10:30:41;;;;;;;4.18;1.88;;;26.90;64.00;;;;;;4195224;28;20036;-64
2021/03/13 10:32:48;;;;;;;4.25;2.15;;;26.90;63.90;;;;;;4196894;28;20033;-59
2021/03/13 10:35:04;;;;;;;3.50;1.98;;;26.90;63.90;;;;;;4197458;28;20033;-60
2021/03/13 10:37:06;;;;;;;3.03;1.90;;;26.90;64.00;;;;;;4181962;28;20117;-60
2021/03/13 10:39:09;;;;;;;3.08;1.85;;;27.00;64.10;;;;;;4192266;28;20162;-60
2021/03/13 10:41:15;;;;;;;5.00;1.98;;;26.90;64.00;;;;;;4197880;28;21404;-60
2021/03/13 10:43:36;;;;;;;4.45;1.98;;;27.00;64.10;;;;;;4196695;28;20126;-63
2021/03/13 10:45:40;;;;;;;7.38;2.42;;;27.00;64.10;;;;;;4194143;28;20047;-59
2021/03/13 10:47:43;;;;;;;5.93;2.75;;;27.10;64.30;;;;;;4198331;28;20090;-61
2021/03/13 10:49:58;;;;;;;6.30;2.33;;;27.10;64.30;;;;;;4198054;28;20046;-65
2021/03/13 10:52:00;;;;;;;4.90;2.03;;;27.10;64.30;;;;;;4195696;28;20405;-62
2021/03/13 10:54:05;;;;;;;7.70;2.13;;;27.20;64.40;;;;;;4198704;28;20036;-63
2021/03/13 10:56:09;;;;;;;5.32;2.00;;;27.10;64.40;;;;;;4196464;28;20055;-65